Time;durP1;ratioP1;P1;durP2;ratioP2;P2;SDS_P1;SDS_P2;PMS_P1;PMS_P2;Temp;Humidity;BMP_temperature;BMP_pressure;BME280_temperature;BME280_humidity;BME280_pressure;Samples;Min_cycle;Max_cycle;Signal;HPM_P1;HPM_P2
2023/02/19 00:01:33;;;;;;;18.42;4.97;;;9.40;99.90;;;;;;4996460;28;20154;-80
2023/02/19 00:03:59;;;;;;;18.90;5.17;;;9.40;99.90;;;;;;4996251;28;20421;-79
2023/02/19 00:06:26;;;;;;;16.58;4.18;;;9.40;99.90;;;;;;4997195;28;20611;-78
2023/02/19 00:08:52;;;;;;;16.50;4.93;;;9.40;99.90;;;;;;4997151;28;20042;-80
2023/02/19 00:11:20;;;;;;;20.77;5.47;;;9.40;99.90;;;;;;4996515;28;20050;-77
2023/02/19 00:13:47;;;;;;;17.45;5.20;;;9.40;99.90;;;;;;4979503;28;20046;-76
2023/02/19 00:16:13;;;;;;;12.05;4.60;;;9.30;99.90;;;;;;4995890;28;20417;-80
2023/02/19 00:18:40;;;;;;;19.08;4.75;;;9.30;99.90;;;;;;4996672;28;20534;-79
2023/02/19 00:21:07;;;;;;;13.95;4.57;;;9.30;99.90;;;;;;4997151;28;20085;-81
2023/02/19 00:23:34;;;;;;;18.83;4.65;;;9.30;99.90;;;;;;4996998;28;20066;-80
2023/02/19 00:26:01;;;;;;;13.40;3.50;;;9.30;99.90;;;;;;4996049;28;20354;-79
2023/02/19 00:28:44;;;;;;;14.50;3.90;;;9.30;99.90;;;;;;4982569;28;20109;-81
2023/02/19 00:31:11;;;;;;;11.65;4.35;;;9.30;99.90;;;;;;4996338;28;20046;-77
2023/02/19 00:33:38;;;;;;;19.67;5.47;;;9.30;99.90;;;;;;4995957;28;20043;-80
2023/02/19 00:36:05;;;;;;;15.27;3.83;;;9.30;99.90;;;;;;4996811;28;20057;-79
2023/02/19 00:38:31;;;;;;;20.35;5.78;;;9.30;99.90;;;;;;4996224;28;20368;-78
2023/02/19 00:43:44;;;;;;;14.27;3.42;;;9.40;99.90;;;;;;4976513;28;20071;-78
2023/02/19 00:46:10;;;;;;;16.60;5.18;;;9.60;99.90;;;;;;4975990;28;20035;-78
2023/02/19 00:48:37;;;;;;;13.23;3.50;;;9.60;99.90;;;;;;4976152;28;20046;-79
2023/02/19 00:51:05;;;;;;;14.65;4.78;;;9.60;99.90;;;;;;4976236;28;20034;-79
2023/02/19 00:53:32;;;;;;;20.15;5.68;;;9.60;99.90;;;;;;4976937;28;20373;-79
2023/02/19 00:55:58;;;;;;;16.35;4.22;;;9.60;99.90;;;;;;4976034;28;20054;-78
2023/02/19 00:58:25;;;;;;;12.15;3.80;;;9.50;99.90;;;;;;4959142;28;20146;-79
2023/02/19 01:00:51;;;;;;;12.10;4.05;;;9.40;99.90;;;;;;4960614;28;20039;-78
2023/02/19 01:03:18;;;;;;;17.58;5.07;;;9.30;99.90;;;;;;4977251;28;20053;-78
2023/02/19 01:05:45;;;;;;;14.25;5.00;;;9.30;99.90;;;;;;4974888;28;20070;-80
2023/02/19 01:08:11;;;;;;;13.32;3.47;;;9.30;99.90;;;;;;4977287;28;20050;-78
2023/02/19 01:10:38;;;;;;;18.02;4.70;;;9.20;99.90;;;;;;4958964;28;20051;-79
2023/02/19 01:13:04;;;;;;;15.10;3.97;;;9.10;99.90;;;;;;4976020;28;20061;-78
2023/02/19 01:15:31;;;;;;;16.40;3.97;;;9.10;99.90;;;;;;4976822;28;20047;-80
2023/02/19 01:17:58;;;;;;;16.75;4.07;;;9.10;99.90;;;;;;4975634;28;20039;-77
2023/02/19 01:20:25;;;;;;;13.10;4.68;;;9.20;99.90;;;;;;4976607;28;20481;-77
2023/02/19 01:22:52;;;;;;;10.35;4.53;;;9.10;99.90;;;;;;4975610;28;20444;-80
2023/02/19 01:25:19;;;;;;;15.40;4.22;;;9.10;99.90;;;;;;4974737;28;20039;-79
2023/02/19 01:27:46;;;;;;;18.52;4.65;;;9.10;99.90;;;;;;4975810;28;20358;-79
2023/02/19 01:30:12;;;;;;;19.00;5.70;;;9.10;99.90;;;;;;4976390;28;20043;-76
2023/02/19 01:32:39;;;;;;;19.48;4.63;;;9.10;99.90;;;;;;4975515;28;20050;-80
2023/02/19 01:35:06;;;;;;;17.65;4.45;;;9.10;99.90;;;;;;4976067;28;20039;-78
2023/02/19 01:37:32;;;;;;;18.17;5.68;;;9.20;99.90;;;;;;4975497;28;20043;-80
2023/02/19 01:39:59;;;;;;;17.30;5.28;;;9.30;99.90;;;;;;4976261;28;20113;-79
2023/02/19 01:42:26;;;;;;;12.40;4.20;;;9.40;99.90;;;;;;4976245;28;20450;-80
2023/02/19 01:44:53;;;;;;;16.83;5.25;;;9.40;99.90;;;;;;4974418;28;20039;-80
2023/02/19 01:47:19;;;;;;;14.50;3.92;;;9.50;99.90;;;;;;4974979;28;20388;-80
2023/02/19 01:49:49;;;;;;;13.95;3.70;;;9.50;99.90;;;;;;4975368;28;20046;-80
2023/02/19 01:52:16;;;;;;;;;;;9.50;99.90;;;;;;4963628;28;20059;-78
2023/02/19 01:54:42;;;;;;;14.70;4.45;;;9.50;99.90;;;;;;4955668;28;19926;-76
2023/02/19 01:57:09;;;;;;;12.73;4.30;;;9.50;99.90;;;;;;4955562;28;20055;-78
2023/02/19 01:59:35;;;;;;;15.60;6.00;;;9.60;99.90;;;;;;4955712;29;20039;-79
2023/02/19 02:02:03;;;;;;;12.32;4.38;;;9.50;99.90;;;;;;4957379;28;20051;-80
2023/02/19 02:04:29;;;;;;;13.88;4.10;;;9.50;99.90;;;;;;4954937;28;20043;-78
2023/02/19 02:06:56;;;;;;;16.50;4.47;;;9.50;99.90;;;;;;4955372;28;20137;-80
2023/02/19 02:12:08;;;;;;;9.73;4.70;;;9.40;99.90;;;;;;4954752;29;20043;-79
2023/02/19 02:14:35;;;;;;;10.25;4.60;;;9.30;99.90;;;;;;4955527;28;20043;-77
2023/02/19 02:17:01;;;;;;;13.40;4.32;;;9.20;99.90;;;;;;4955467;28;20063;-80
2023/02/19 02:19:28;;;;;;;16.30;4.07;;;9.10;99.90;;;;;;4956445;28;20050;-80
2023/02/19 02:21:55;;;;;;;13.32;4.60;;;9.00;99.90;;;;;;4956486;28;20437;-78
2023/02/19 02:24:22;;;;;;;11.50;3.80;;;8.90;99.90;;;;;;4954569;28;20114;-78
2023/02/19 02:26:48;;;;;;;17.60;4.68;;;8.90;99.90;;;;;;4955357;29;20493;-80
2023/02/19 02:29:15;;;;;;;15.32;4.68;;;8.80;99.90;;;;;;4991440;28;20077;-80
2023/02/19 02:31:42;;;;;;;11.00;4.03;;;8.80;99.90;;;;;;4993287;28;20100;-79
2023/02/19 02:34:09;;;;;;;14.98;4.05;;;8.70;99.90;;;;;;4994597;28;20508;-78
2023/02/19 02:36:36;;;;;;;17.98;5.13;;;8.60;99.90;;;;;;4993930;28;20050;-78
2023/02/19 02:39:04;;;;;;;13.65;4.70;;;8.60;99.90;;;;;;4996248;28;20346;-78
2023/02/19 02:41:35;;;;;;;13.63;4.40;;;8.60;99.90;;;;;;4992578;28;20050;-80
2023/02/19 02:44:02;;;;;;;17.10;4.23;;;8.60;99.90;;;;;;4977857;28;20051;-80
2023/02/19 02:46:29;;;;;;;19.95;5.22;;;8.50;99.90;;;;;;4978205;28;20292;-79
2023/02/19 02:48:55;;;;;;;19.05;5.85;;;8.40;99.90;;;;;;4962618;28;20089;-78
2023/02/19 02:51:22;;;;;;;14.57;4.38;;;8.40;99.90;;;;;;4977830;28;20042;-79
2023/02/19 02:56:42;;;;;;;12.45;4.38;;;8.40;99.90;;;;;;4978043;28;20050;-77
2023/02/19 02:59:09;;;;;;;9.05;3.50;;;8.30;99.90;;;;;;4977309;28;20137;-77
2023/02/19 03:04:21;;;;;;;13.65;4.00;;;8.30;99.90;;;;;;4977268;28;20518;-78
2023/02/19 03:06:49;;;;;;;12.52;4.55;;;8.30;99.90;;;;;;4978972;28;20105;-78
2023/02/19 03:09:16;;;;;;;15.13;4.75;;;8.30;99.90;;;;;;4978326;28;20565;-78
2023/02/19 03:20:00;;;;;;;12.20;4.07;;;8.40;99.90;;;;;;4978381;28;20047;-81
2023/02/19 03:22:35;;;;;;;13.98;4.55;;;8.40;99.90;;;;;;4978319;28;20047;-79
2023/02/19 03:27:46;;;;;;;13.82;4.15;;;8.60;99.90;;;;;;4978013;28;20047;-80
2023/02/19 03:30:13;;;;;;;8.93;3.45;;;8.60;99.90;;;;;;4961645;28;20043;-79
2023/02/19 03:32:42;;;;;;;14.57;3.90;;;8.50;99.90;;;;;;4961231;28;20051;-79
2023/02/19 03:35:09;;;;;;;10.85;4.00;;;8.50;99.90;;;;;;4977484;28;20042;-79
2023/02/19 03:37:37;;;;;;;10.93;3.90;;;8.50;99.90;;;;;;4976390;28;20465;-80
2023/02/19 03:40:04;;;;;;;12.75;3.95;;;8.50;99.90;;;;;;4961505;28;20421;-79
2023/02/19 03:42:32;;;;;;;13.15;4.75;;;8.60;99.90;;;;;;4965352;28;20070;-78
2023/02/19 03:44:59;;;;;;;16.77;4.10;;;8.60;99.90;;;;;;4957174;29;20074;-79
2023/02/19 03:47:27;;;;;;;13.32;4.50;;;8.70;99.90;;;;;;4958765;28;20140;-79
2023/02/19 03:49:54;;;;;;;13.30;3.75;;;8.70;99.90;;;;;;4958475;28;20122;-81
2023/02/19 03:52:22;;;;;;;14.93;4.88;;;8.70;99.90;;;;;;4957125;28;20047;-80
2023/02/19 03:54:48;;;;;;;8.93;2.58;;;8.60;99.90;;;;;;4957647;28;20048;-78
2023/02/19 03:57:15;;;;;;;14.23;4.70;;;8.50;99.90;;;;;;4956867;28;20611;-81
2023/02/19 03:59:42;;;;;;;17.55;4.90;;;8.40;99.90;;;;;;4958156;28;20458;-79
2023/02/19 04:02:10;;;;;;;14.35;4.25;;;8.40;99.90;;;;;;4957650;28;20079;-80
2023/02/19 04:04:37;;;;;;;11.23;4.20;;;8.40;99.90;;;;;;4956868;28;20370;-78
2023/02/19 04:07:04;;;;;;;13.45;4.00;;;8.40;99.90;;;;;;4973399;28;20047;-78
2023/02/19 04:09:34;;;;;;;12.77;3.70;;;8.30;99.90;;;;;;4957881;29;20162;-78
2023/02/19 04:12:06;;;;;;;12.35;4.25;;;8.30;99.90;;;;;;4956850;28;20142;-78
2023/02/19 04:14:33;;;;;;;13.68;3.42;;;8.20;99.90;;;;;;4957846;28;20055;-79
2023/02/19 04:17:00;;;;;;;10.90;2.97;;;8.20;99.90;;;;;;4940792;29;20035;-80
2023/02/19 04:19:27;;;;;;;12.18;4.32;;;8.20;99.90;;;;;;4958565;28;20039;-78
2023/02/19 04:21:54;;;;;;;11.18;3.92;;;8.20;99.90;;;;;;4958942;28;20043;-81
2023/02/19 04:24:20;;;;;;;17.38;4.07;;;8.20;99.90;;;;;;4957615;28;20044;-77
2023/02/19 04:26:47;;;;;;;11.80;3.75;;;8.20;99.90;;;;;;4957203;29;20094;-81
2023/02/19 04:29:14;;;;;;;10.93;3.53;;;8.20;99.90;;;;;;4958001;28;20035;-81
2023/02/19 04:31:42;;;;;;;13.43;3.95;;;8.20;99.90;;;;;;4957453;28;20039;-80
2023/02/19 04:34:08;;;;;;;14.10;4.32;;;8.30;99.90;;;;;;4958117;28;20391;-80
2023/02/19 04:36:35;;;;;;;15.15;4.60;;;8.40;99.90;;;;;;4940793;28;20521;-81
2023/02/19 04:39:01;;;;;;;11.90;3.28;;;8.50;99.90;;;;;;4956566;29;20054;-79
2023/02/19 04:41:28;;;;;;;8.73;2.60;;;8.60;99.90;;;;;;4962081;28;20085;-79
2023/02/19 04:43:55;;;;;;;17.38;4.55;;;8.60;99.90;;;;;;4975687;28;20057;-80
2023/02/19 04:46:21;;;;;;;6.35;2.70;;;8.70;99.90;;;;;;4976859;28;20047;-80
2023/02/19 04:48:48;;;;;;;13.40;3.58;;;8.70;99.90;;;;;;4976319;28;20076;-81
2023/02/19 04:51:16;;;;;;;6.80;2.47;;;8.70;99.90;;;;;;4976177;28;20050;-79
2023/02/19 04:53:43;;;;;;;9.82;3.03;;;8.80;99.90;;;;;;4976964;28;20125;-79
2023/02/19 04:56:09;;;;;;;14.60;2.97;;;8.80;99.90;;;;;;4975645;28;20050;-78
2023/02/19 04:58:36;;;;;;;12.18;3.65;;;8.80;99.90;;;;;;4976067;28;20043;-80
2023/02/19 05:01:03;;;;;;;9.15;3.10;;;8.80;99.90;;;;;;4975486;28;20049;-78
2023/02/19 05:03:29;;;;;;;12.85;3.90;;;8.80;99.90;;;;;;4977221;28;20073;-81
2023/02/19 05:05:56;;;;;;;11.05;3.20;;;8.90;99.90;;;;;;4974729;28;20043;-80
2023/02/19 05:08:23;;;;;;;7.47;2.45;;;8.90;99.90;;;;;;4976833;28;20072;-79
2023/02/19 05:10:49;;;;;;;8.48;2.33;;;8.90;99.90;;;;;;4975800;28;20039;-80
2023/02/19 05:13:16;;;;;;;9.57;3.35;;;8.90;99.90;;;;;;4976555;28;20381;-79
2023/02/19 05:15:42;;;;;;;9.88;3.47;;;8.90;99.90;;;;;;4976332;28;20042;-78
2023/02/19 05:18:09;;;;;;;7.57;2.53;;;8.90;99.90;;;;;;4975982;28;20045;-79
2023/02/19 05:20:36;;;;;;;10.75;3.45;;;9.00;99.90;;;;;;4976501;28;20054;-80
2023/02/19 05:23:04;;;;;;;13.13;3.47;;;9.00;99.90;;;;;;4976784;28;20363;-81
2023/02/19 05:25:31;;;;;;;9.82;3.00;;;9.00;99.90;;;;;;4974539;28;20046;-81
2023/02/19 05:28:15;;;;;;;8.93;2.25;;;9.00;99.90;;;;;;4976686;28;20383;-78
2023/02/19 05:30:42;;;;;;;9.38;2.47;;;9.00;99.90;;;;;;4975865;28;20146;-79
2023/02/19 05:33:10;;;;;;;8.85;2.50;;;9.00;99.90;;;;;;4976754;28;20131;-79
2023/02/19 05:35:36;;;;;;;10.20;2.40;;;8.90;99.90;;;;;;4975691;28;20458;-79
2023/02/19 05:38:04;;;;;;;10.23;3.60;;;8.80;99.90;;;;;;4975429;28;20043;-79
2023/02/19 05:40:31;;;;;;;4.88;2.10;;;8.70;99.90;;;;;;4976153;28;20042;-78
2023/02/19 05:42:58;;;;;;;8.10;2.75;;;8.50;99.90;;;;;;4956081;28;20102;-81
2023/02/19 05:45:25;;;;;;;8.30;3.30;;;8.40;99.90;;;;;;4954946;29;20051;-78
2023/02/19 05:47:51;;;;;;;5.72;2.75;;;8.40;99.90;;;;;;4957063;28;20051;-81
2023/02/19 05:50:18;;;;;;;11.23;3.42;;;8.30;99.90;;;;;;4957089;28;20043;-79
2023/02/19 05:52:45;;;;;;;9.13;3.92;;;8.20;99.90;;;;;;4957286;28;20051;-80
2023/02/19 05:55:11;;;;;;;6.53;2.40;;;8.20;99.90;;;;;;4956421;28;20525;-78
2023/02/19 05:57:38;;;;;;;9.15;3.45;;;8.10;99.90;;;;;;4955310;28;20039;-79
2023/02/19 06:00:07;;;;;;;8.23;2.20;;;8.10;99.90;;;;;;4955818;29;20146;-78
2023/02/19 06:02:38;;;;;;;;;;;8.10;99.90;;;;;;4957407;28;20049;-78
2023/02/19 06:05:05;;;;;;;7.80;2.83;;;8.00;99.90;;;;;;4954571;29;20333;-79
2023/02/19 06:07:32;;;;;;;6.72;2.40;;;7.90;99.90;;;;;;4955815;28;20417;-79
2023/02/19 06:09:58;;;;;;;9.70;3.15;;;7.90;99.90;;;;;;4956715;28;20043;-79
2023/02/19 06:12:25;;;;;;;9.15;2.58;;;7.90;99.90;;;;;;4955238;28;20039;-79
2023/02/19 06:14:52;;;;;;;10.27;3.25;;;7.90;99.90;;;;;;4956535;28;20062;-80
2023/02/19 06:17:18;;;;;;;13.45;3.30;;;7.80;99.90;;;;;;4954966;29;20047;-80
2023/02/19 06:19:45;;;;;;;8.77;3.30;;;7.80;99.90;;;;;;4956386;29;20039;-78
2023/02/19 06:22:12;;;;;;;8.93;2.00;;;7.80;99.90;;;;;;4959873;28;20371;-79
2023/02/19 06:24:39;;;;;;;8.27;2.50;;;7.80;99.90;;;;;;4958586;28;20049;-80
2023/02/19 06:27:05;;;;;;;13.50;3.20;;;7.80;99.90;;;;;;4956947;28;20430;-78
2023/02/19 06:29:32;;;;;;;7.75;2.40;;;7.80;99.90;;;;;;4955667;28;20047;-79
2023/02/19 06:32:00;;;;;;;10.30;2.70;;;7.80;99.90;;;;;;4955570;28;20058;-80
2023/02/19 06:34:27;;;;;;;8.82;3.00;;;7.80;99.90;;;;;;4957256;28;20051;-80
2023/02/19 06:36:53;;;;;;;4.47;2.63;;;7.80;99.90;;;;;;4955063;28;20035;-78
2023/02/19 06:39:20;;;;;;;10.10;2.47;;;7.70;99.90;;;;;;4955550;28;20110;-78
2023/02/19 06:41:47;;;;;;;7.85;2.22;;;7.70;99.90;;;;;;4975594;28;20051;-78
2023/02/19 06:44:14;;;;;;;11.52;2.72;;;7.70;99.90;;;;;;4954792;29;20066;-80
2023/02/19 06:46:40;;;;;;;7.15;2.80;;;7.70;99.90;;;;;;4955263;29;20035;-78
2023/02/19 06:49:07;;;;;;;7.82;2.70;;;7.70;99.90;;;;;;4955359;28;20478;-78
2023/02/19 06:51:35;;;;;;;10.20;4.05;;;7.60;99.90;;;;;;4938835;28;20055;-79
2023/02/19 06:54:02;;;;;;;10.25;3.55;;;7.60;99.90;;;;;;4955649;29;20051;-76
2023/02/19 06:56:28;;;;;;;6.85;2.53;;;7.50;99.90;;;;;;4955775;28;20398;-77
2023/02/19 06:58:55;;;;;;;8.55;2.88;;;7.50;99.90;;;;;;4954486;28;20062;-78
2023/02/19 07:01:23;;;;;;;11.45;3.95;;;7.50;99.90;;;;;;4955375;28;20043;-80
2023/02/19 07:03:51;;;;;;;9.02;3.00;;;7.50;99.90;;;;;;4954603;29;20351;-80
2023/02/19 07:06:18;;;;;;;6.85;2.45;;;7.50;99.90;;;;;;4955836;28;20054;-79
2023/02/19 07:08:44;;;;;;;10.40;3.20;;;7.50;99.90;;;;;;4954965;29;20138;-79
2023/02/19 07:11:11;;;;;;;6.45;2.50;;;7.50;99.90;;;;;;4954271;28;20051;-78
2023/02/19 07:13:38;;;;;;;6.93;2.70;;;7.50;99.90;;;;;;4956255;28;20055;-77
2023/02/19 07:16:06;;;;;;;7.15;2.20;;;7.50;99.90;;;;;;4955224;29;20040;-79
2023/02/19 07:18:33;;;;;;;9.00;2.22;;;7.50;99.90;;;;;;4955217;28;20081;-78
2023/02/19 07:21:00;;;;;;;7.82;2.03;;;7.50;99.90;;;;;;4955291;28;20102;-78
2023/02/19 07:23:26;;;;;;;8.95;3.00;;;7.50;99.90;;;;;;4956377;28;20043;-80
2023/02/19 07:25:53;;;;;;;12.82;3.65;;;7.60;99.90;;;;;;4957692;29;20051;-78
2023/02/19 07:28:19;;;;;;;9.20;2.28;;;7.60;99.90;;;;;;4958367;29;20047;-79
2023/02/19 07:30:46;;;;;;;10.85;3.00;;;7.60;99.90;;;;;;4957691;29;20047;-77
2023/02/19 07:33:12;;;;;;;8.30;2.00;;;7.60;99.90;;;;;;4958379;29;20043;-81
2023/02/19 07:35:39;;;;;;;10.65;2.63;;;7.70;99.90;;;;;;4959063;28;20050;-78
2023/02/19 07:38:06;;;;;;;7.75;2.22;;;7.80;99.90;;;;;;4958368;28;20058;-79
2023/02/19 07:40:33;;;;;;;9.63;3.00;;;7.80;99.90;;;;;;4959148;28;20051;-79
2023/02/19 07:43:00;;;;;;;7.72;2.20;;;7.90;99.90;;;;;;4975284;28;20382;-77
2023/02/19 07:45:27;;;;;;;8.95;2.30;;;7.90;99.90;;;;;;4977401;28;20058;-79
2023/02/19 07:47:53;;;;;;;12.27;3.45;;;7.90;99.90;;;;;;4978769;28;20057;-80
2023/02/19 07:50:20;;;;;;;7.18;2.10;;;7.90;99.90;;;;;;4977480;28;20430;-79
2023/02/19 07:52:47;;;;;;;8.18;2.58;;;7.90;99.90;;;;;;4978163;28;20047;-79
2023/02/19 07:55:13;;;;;;;9.18;2.50;;;8.00;99.90;;;;;;4977690;28;20070;-78
2023/02/19 07:57:40;;;;;;;7.43;2.80;;;8.00;99.90;;;;;;4977995;28;20042;-77
2023/02/19 08:00:06;;;;;;;7.05;2.42;;;8.10;99.90;;;;;;4978423;28;20407;-79
2023/02/19 08:05:23;;;;;;;8.65;2.55;;;8.10;99.90;;;;;;4976135;28;20101;-78
2023/02/19 08:07:50;;;;;;;12.40;3.03;;;8.10;99.90;;;;;;4978178;28;20061;-77
2023/02/19 08:13:24;;;;;;;8.50;1.98;;;8.10;99.90;;;;;;4997395;28;20043;-79
2023/02/19 08:15:49;;;;;;;6.97;2.15;;;8.10;99.90;;;;;;4990974;28;20053;-77
2023/02/19 08:18:15;;;;;;;8.38;2.70;;;8.20;99.90;;;;;;4987073;28;20051;-78
2023/02/19 08:20:42;;;;;;;8.45;2.97;;;8.20;99.90;;;;;;4987354;28;20496;-76
2023/02/19 08:23:10;;;;;;;7.47;2.03;;;8.30;99.90;;;;;;4982092;28;20046;-75
2023/02/19 08:25:37;;;;;;;10.82;3.35;;;8.20;99.90;;;;;;4984154;28;20158;-76
2023/02/19 08:28:03;;;;;;;12.57;3.28;;;8.30;99.90;;;;;;4985940;28;20503;-77
2023/02/19 08:30:30;;;;;;;10.45;3.80;;;8.30;99.90;;;;;;4977045;28;20034;-78
2023/02/19 08:32:56;;;;;;;9.65;3.05;;;8.30;99.90;;;;;;4989506;28;20034;-77
2023/02/19 08:35:23;;;;;;;8.50;3.78;;;8.30;99.90;;;;;;4994060;28;20042;-78
2023/02/19 08:37:50;;;;;;;9.52;2.45;;;8.30;99.90;;;;;;4991903;28;20380;-77
2023/02/19 08:40:16;;;;;;;6.82;1.90;;;8.30;99.90;;;;;;4994641;28;20034;-78
2023/02/19 08:42:43;;;;;;;9.80;2.17;;;8.30;99.90;;;;;;4992286;28;20046;-76
2023/02/19 08:45:09;;;;;;;5.78;2.25;;;8.30;99.90;;;;;;4989196;28;20058;-79
2023/02/19 08:47:37;;;;;;;4.65;2.08;;;8.30;99.90;;;;;;4992397;28;20039;-77
2023/02/19 08:50:03;;;;;;;6.45;2.20;;;8.30;99.90;;;;;;4976304;28;20047;-78
2023/02/19 08:52:30;;;;;;;4.65;2.33;;;8.30;99.90;;;;;;4993463;28;20038;-77
2023/02/19 08:54:57;;;;;;;7.38;2.42;;;8.40;99.90;;;;;;4996259;28;20062;-78
2023/02/19 08:57:25;;;;;;;9.90;2.20;;;8.40;99.90;;;;;;4994110;28;20385;-77
2023/02/19 08:59:51;;;;;;;5.03;2.15;;;8.40;99.90;;;;;;4979162;28;20385;-77
2023/02/19 09:02:18;;;;;;;5.57;2.58;;;8.40;99.90;;;;;;4996301;28;20046;-78
2023/02/19 09:04:45;;;;;;;13.00;3.95;;;8.40;99.90;;;;;;4979494;28;20043;-78
2023/02/19 09:07:11;;;;;;;6.95;2.45;;;8.50;99.90;;;;;;4976861;28;20043;-77
2023/02/19 09:09:38;;;;;;;7.85;3.35;;;8.50;99.90;;;;;;4975400;28;20485;-76
2023/02/19 09:12:06;;;;;;;7.65;2.55;;;8.50;99.90;;;;;;4975608;28;20043;-77
2023/02/19 09:14:33;;;;;;;5.90;2.28;;;8.50;99.90;;;;;;4990159;28;20042;-79
2023/02/19 09:17:00;;;;;;;6.18;2.20;;;8.50;99.90;;;;;;4988473;28;20047;-76
2023/02/19 09:19:26;;;;;;;5.10;2.30;;;8.50;99.90;;;;;;4976688;28;20377;-77
2023/02/19 09:21:53;;;;;;;11.43;2.30;;;8.50;99.90;;;;;;4976646;28;20387;-78
2023/02/19 09:24:20;;;;;;;14.90;3.30;;;8.60;99.90;;;;;;4974557;28;20061;-76
2023/02/19 09:26:46;;;;;;;7.20;2.10;;;8.70;99.90;;;;;;4957582;28;20050;-78
2023/02/19 09:29:14;;;;;;;12.18;2.95;;;8.90;99.90;;;;;;4956212;29;20114;-78
2023/02/19 09:31:41;;;;;;;6.28;2.85;;;9.10;99.90;;;;;;4939027;29;20047;-78
2023/02/19 09:34:07;;;;;;;10.02;2.72;;;9.20;99.90;;;;;;4956316;29;20043;-79
2023/02/19 09:36:34;;;;;;;5.55;3.15;;;9.30;99.90;;;;;;4956669;28;20051;-79
2023/02/19 09:39:01;;;;;;;5.72;2.22;;;9.40;99.90;;;;;;4955712;28;20120;-81
2023/02/19 09:41:27;;;;;;;5.80;2.70;;;9.50;99.90;;;;;;4955656;29;20106;-80
2023/02/19 09:43:54;;;;;;;5.20;2.00;;;9.60;99.90;;;;;;4956107;28;20126;-83
2023/02/19 09:46:21;;;;;;;4.35;1.70;;;9.70;99.90;;;;;;4956599;28;20485;-79
2023/02/19 09:48:47;;;;;;;5.05;1.90;;;9.70;99.90;;;;;;4956050;29;20134;-78
2023/02/19 09:51:15;;;;;;;5.43;1.52;;;9.80;99.90;;;;;;4964881;28;20042;-79
2023/02/19 09:53:42;;;;;;;6.03;2.00;;;9.90;99.90;;;;;;4980529;28;20047;-78
2023/02/19 09:56:09;;;;;;;5.95;2.13;;;10.00;99.90;;;;;;4974512;28;20134;-81
2023/02/19 09:58:35;;;;;;;5.78;1.90;;;10.10;99.90;;;;;;4974974;28;20038;-79
2023/02/19 10:01:02;;;;;;;5.90;2.20;;;10.20;99.90;;;;;;4975000;28;20049;-81
2023/02/19 10:03:33;;;;;;;6.38;2.03;;;10.30;99.90;;;;;;4975191;28;20115;-80
2023/02/19 10:06:00;;;;;;;5.15;2.10;;;10.40;99.90;;;;;;4994067;28;20496;-79
2023/02/19 10:08:27;;;;;;;3.95;1.65;;;10.40;99.90;;;;;;4993910;28;20373;-80
2023/02/19 10:10:53;;;;;;;5.50;2.40;;;10.60;99.90;;;;;;4969548;28;20053;-79
2023/02/19 10:13:20;;;;;;;3.30;1.48;;;10.70;99.90;;;;;;4977557;28;20567;-81
2023/02/19 10:15:47;;;;;;;3.05;1.83;;;11.00;99.90;;;;;;4963758;28;20054;-80
2023/02/19 10:18:13;;;;;;;4.85;2.22;;;11.20;99.90;;;;;;4970709;28;20051;-78
2023/02/19 10:20:40;;;;;;;10.70;3.08;;;11.40;99.90;;;;;;4987822;28;20042;-81
2023/02/19 10:23:08;;;;;;;8.13;1.70;;;11.50;99.90;;;;;;4977931;28;20350;-79
2023/02/19 10:25:34;;;;;;;5.18;2.00;;;11.60;99.90;;;;;;4967587;28;20051;-80
2023/02/19 10:28:01;;;;;;;4.28;1.77;;;11.50;99.90;;;;;;4983368;28;20046;-80
2023/02/19 10:30:28;;;;;;;5.00;1.58;;;11.50;99.90;;;;;;4987492;28;20039;-80
2023/02/19 10:32:55;;;;;;;6.95;1.77;;;11.60;99.90;;;;;;4990187;28;20469;-81
2023/02/19 10:35:21;;;;;;;6.63;1.70;;;11.90;99.90;;;;;;4977818;28;20054;-81
2023/02/19 10:37:48;;;;;;;6.70;2.00;;;11.70;99.90;;;;;;4993248;28;20350;-81
2023/02/19 10:40:14;;;;;;;3.92;1.60;;;11.40;99.90;;;;;;4994844;28;20050;-79
2023/02/19 10:42:41;;;;;;;3.58;1.77;;;11.10;99.90;;;;;;4985238;28;20045;-79
2023/02/19 10:45:08;;;;;;;5.45;1.45;;;10.80;99.90;;;;;;4974846;28;20043;-79
2023/02/19 10:47:35;;;;;;;5.57;1.95;;;10.60;99.90;;;;;;4975449;28;20047;-79
2023/02/19 10:50:01;;;;;;;6.05;1.83;;;10.60;99.90;;;;;;4974222;28;20034;-79
2023/02/19 10:52:30;;;;;;;6.73;1.47;;;10.90;99.90;;;;;;4974480;28;20047;-80
2023/02/19 10:54:57;;;;;;;4.38;1.40;;;11.40;99.90;;;;;;4974255;28;20063;-79
2023/02/19 10:57:31;;;;;;;6.97;1.42;;;11.80;99.90;;;;;;4974201;28;20086;-79
2023/02/19 10:59:59;;;;;;;3.88;1.60;;;12.00;99.90;;;;;;4976787;28;20055;-78
2023/02/19 11:02:26;;;;;;;4.03;1.42;;;12.20;99.90;;;;;;4978618;28;20050;-80
2023/02/19 11:04:53;;;;;;;8.52;1.77;;;12.40;99.90;;;;;;4978048;28;20039;-80
2023/02/19 11:07:19;;;;;;;7.70;1.92;;;12.50;99.90;;;;;;4977737;28;20472;-80
2023/02/19 11:09:46;;;;;;;4.45;1.63;;;12.50;99.90;;;;;;4978558;28;20052;-79
2023/02/19 11:12:13;;;;;;;7.25;1.83;;;12.60;99.90;;;;;;4976919;28;20054;-79
2023/02/19 11:14:39;;;;;;;4.85;1.63;;;12.70;99.90;;;;;;4978833;28;20042;-79
2023/02/19 11:17:06;;;;;;;4.05;1.60;;;12.70;99.90;;;;;;4977827;28;20050;-80
2023/02/19 11:19:33;;;;;;;4.10;1.65;;;12.70;99.90;;;;;;4966038;28;20136;-80
2023/02/19 11:21:59;;;;;;;4.00;1.70;;;12.70;99.90;;;;;;4977447;28;20366;-79
2023/02/19 11:24:26;;;;;;;5.93;1.63;;;12.60;99.90;;;;;;4976691;28;20145;-77
2023/02/19 11:26:53;;;;;;;3.72;1.65;;;12.40;99.90;;;;;;4958343;28;20422;-82
2023/02/19 11:29:21;;;;;;;6.32;2.15;;;12.30;99.90;;;;;;4958249;28;20047;-79
2023/02/19 11:31:48;;;;;;;3.85;2.28;;;12.10;99.90;;;;;;4958132;28;20047;-80
2023/02/19 11:34:19;;;;;;;3.40;1.52;;;12.00;99.90;;;;;;4959020;28;20050;-79
2023/02/19 11:36:46;;;;;;;4.10;1.40;;;12.10;99.90;;;;;;4958298;28;20400;-80
2023/02/19 11:39:13;;;;;;;4.78;1.40;;;12.10;99.90;;;;;;4972373;28;20039;-81
2023/02/19 11:41:39;;;;;;;3.63;1.50;;;12.00;99.90;;;;;;4968079;28;20053;-79
2023/02/19 11:44:06;;;;;;;3.90;2.20;;;12.20;99.90;;;;;;4987514;28;20105;-80
2023/02/19 11:46:32;;;;;;;6.13;2.40;;;12.60;99.90;;;;;;4965463;28;20401;-82
2023/02/19 11:48:59;;;;;;;4.93;1.58;;;12.90;99.90;;;;;;4977744;28;20081;-81
2023/02/19 11:51:29;;;;;;;3.05;1.58;;;12.90;99.90;;;;;;4976019;28;20081;-81
2023/02/19 11:53:55;;;;;;;3.45;1.17;;;13.20;99.90;;;;;;4961107;28;20102;-80
2023/02/19 11:56:22;;;;;;;5.15;1.80;;;13.60;99.90;;;;;;4986654;28;20047;-80
2023/02/19 11:58:48;;;;;;;5.22;1.90;;;14.10;99.90;;;;;;4996607;28;20046;-81
2023/02/19 12:01:16;;;;;;;6.85;2.80;;;14.40;99.90;;;;;;4996212;28;20042;-82
2023/02/19 12:03:43;;;;;;;3.40;1.77;;;14.50;99.90;;;;;;4995501;28;20453;-84
2023/02/19 12:06:10;;;;;;;3.72;1.30;;;14.60;99.90;;;;;;4996035;28;20343;-80
2023/02/19 12:08:37;;;;;;;3.15;1.20;;;14.80;99.90;;;;;;4996002;28;20112;-81
2023/02/19 12:11:06;;;;;;;3.30;1.20;;;14.90;97.10;;;;;;4994913;28;20053;-81
2023/02/19 12:13:32;;;;;;;3.80;1.40;;;14.90;95.40;;;;;;4996497;28;20046;-80
2023/02/19 12:15:59;;;;;;;2.17;1.00;;;14.40;96.30;;;;;;4996248;28;20054;-80
2023/02/19 12:18:25;;;;;;;2.85;1.50;;;13.90;95.60;;;;;;4995355;28;20070;-80
2023/02/19 12:20:52;;;;;;;4.00;1.30;;;13.50;97.40;;;;;;4996888;28;20045;-79
2023/02/19 12:23:18;;;;;;;2.47;1.42;;;13.30;99.40;;;;;;4996178;28;20046;-80
2023/02/19 12:25:45;;;;;;;6.93;1.63;;;13.20;97.30;;;;;;4996079;28;20373;-79
2023/02/19 12:28:12;;;;;;;3.83;1.20;;;13.20;97.60;;;;;;4996929;28;20049;-79
2023/02/19 12:30:39;;;;;;;3.33;1.40;;;13.20;97.80;;;;;;4994710;28;20161;-79
2023/02/19 12:33:08;;;;;;;4.70;1.48;;;13.20;99.40;;;;;;4997027;28;20046;-79
2023/02/19 12:35:34;;;;;;;2.33;1.45;;;13.20;97.70;;;;;;4996861;28;20547;-79
2023/02/19 12:38:01;;;;;;;2.75;1.17;;;13.30;97.90;;;;;;4995745;28;20050;-77
2023/02/19 12:40:27;;;;;;;5.43;1.30;;;13.40;95.40;;;;;;4996404;28;20577;-78
2023/02/19 12:42:54;;;;;;;3.67;1.20;;;13.10;95.50;;;;;;4995641;28;20046;-78
2023/02/19 12:45:21;;;;;;;2.67;1.00;;;13.00;98.00;;;;;;4995953;28;20052;-77
2023/02/19 12:47:48;;;;;;;2.95;1.10;;;12.90;97.30;;;;;;4995555;28;20049;-79
2023/02/19 12:50:14;;;;;;;3.42;1.25;;;13.00;98.80;;;;;;4996235;28;20065;-78
2023/02/19 12:52:42;;;;;;;4.28;1.30;;;13.20;97.20;;;;;;4990186;28;20044;-78
2023/02/19 12:55:09;;;;;;;3.22;1.30;;;13.30;97.60;;;;;;4970962;28;20057;-78
2023/02/19 12:57:35;;;;;;;2.42;1.20;;;13.30;96.60;;;;;;4985735;28;20053;-81
2023/02/19 13:00:06;;;;;;;3.15;1.80;;;13.50;97.20;;;;;;4993819;28;20480;-81
2023/02/19 13:02:32;;;;;;;3.88;1.40;;;13.70;97.40;;;;;;4995425;28;20042;-79
2023/02/19 13:04:59;;;;;;;6.65;1.55;;;13.80;95.50;;;;;;4978115;28;20046;-81
2023/02/19 13:07:26;;;;;;;2.70;1.10;;;14.10;97.60;;;;;;4996470;28;20046;-81
2023/02/19 13:09:53;;;;;;;5.45;1.30;;;14.10;96.20;;;;;;4996214;28;20057;-81
2023/02/19 13:12:20;;;;;;;3.05;1.45;;;14.00;96.90;;;;;;4993552;28;20054;-79
2023/02/19 13:14:46;;;;;;;5.25;1.77;;;13.80;97.30;;;;;;4995217;28;20042;-81
2023/02/19 13:17:13;;;;;;;6.80;1.60;;;13.70;96.90;;;;;;4994890;28;20043;-79